Time;durP1;ratioP1;P1;durP2;ratioP2;P2;SDS_P1;SDS_P2;PMS_P1;PMS_P2;Temp;Humidity;BMP_temperature;BMP_pressure;BME280_temperature;BME280_humidity;BME280_pressure;Samples;Min_cycle;Max_cycle;Signal;HPM_P1;HPM_P2
2021/06/20 00:00:38;;;;;;;5.76;1.39;;;;;;;;;;391016;136;857294;-59
2021/06/20 00:01:39;;;;;;;7.44;1.31;;;;;;;;;;396912;135;864783;-59
2021/06/20 00:02:41;;;;;;;3.71;1.16;;;;;;;;;;392958;135;857295;-58
2021/06/20 00:03:43;;;;;;;5.57;1.31;;;;;;;;;;389775;135;859115;-58
2021/06/20 00:04:44;;;;;;;4.59;1.82;;;;;;;;;;378321;140;858770;-58
2021/06/20 00:05:53;;;;;;;5.99;1.19;;;;;;;;;;377342;140;866918;-57
2021/06/20 00:06:55;;;;;;;3.87;1.48;;;;;;;;;;390559;136;857213;-57
2021/06/20 00:07:57;;;;;;;7.44;1.47;;;;;;;;;;393317;136;857379;-58
2021/06/20 00:08:58;;;;;;;6.41;1.16;;;;;;;;;;394392;135;858338;-58
2021/06/20 00:10:01;;;;;;;5.21;1.31;;;;;;;;;;391421;135;866136;-58
2021/06/20 00:11:03;;;;;;;4.56;1.30;;;;;;;;;;395196;136;860446;-58
2021/06/20 00:12:05;;;;;;;2.46;1.09;;;;;;;;;;396624;135;858725;-58
2021/06/20 00:13:07;;;;;;;8.70;1.29;;;;;;;;;;390466;136;860649;-58
2021/06/20 00:14:09;;;;;;;3.91;1.16;;;;;;;;;;390855;137;859115;-60
2021/06/20 00:15:12;;;;;;;3.91;1.74;;;;;;;;;;394507;136;857270;-58
2021/06/20 00:16:14;;;;;;;7.59;1.29;;;;;;;;;;391884;135;859255;-58
2021/06/20 00:17:16;;;;;;;5.14;1.40;;;;;;;;;;393638;136;865046;-58
2021/06/20 00:18:18;;;;;;;8.27;1.91;;;;;;;;;;393136;136;857255;-59
2021/06/20 00:19:19;;;;;;;5.78;1.52;;;;;;;;;;391182;135;858853;-59
2021/06/20 00:20:23;;;;;;;8.23;1.47;;;;;;;;;;389942;136;857289;-60
2021/06/20 00:21:25;;;;;;;7.03;1.29;;;;;;;;;;389404;138;858612;-59
2021/06/20 00:22:26;;;;;;;5.28;1.49;;;;;;;;;;394251;136;857285;-59
2021/06/20 00:23:28;;;;;;;5.66;1.20;;;;;;;;;;391338;136;857329;-59
2021/06/20 00:24:30;;;;;;;6.07;1.76;;;;;;;;;;395061;136;857199;-59
2021/06/20 00:25:31;;;;;;;5.70;1.46;;;;;;;;;;388045;136;857343;-59
2021/06/20 00:26:33;;;;;;;6.95;1.42;;;;;;;;;;387837;137;866317;-59
2021/06/20 00:27:35;;;;;;;4.79;1.36;;;;;;;;;;387327;138;865477;-59
2021/06/20 00:28:37;;;;;;;4.51;1.21;;;;;;;;;;383785;137;859007;-59
2021/06/20 00:29:38;;;;;;;5.22;1.22;;;;;;;;;;387684;137;857642;-59
2021/06/20 00:30:42;;;;;;;2.19;1.15;;;;;;;;;;387877;138;858438;-58
2021/06/20 00:31:43;;;;;;;4.42;1.51;;;;;;;;;;388570;138;857399;-58
2021/06/20 00:32:45;;;;;;;5.90;1.37;;;;;;;;;;387935;137;857435;-60
2021/06/20 00:33:46;;;;;;;4.81;1.36;;;;;;;;;;385804;138;857333;-58
2021/06/20 00:34:48;;;;;;;6.67;1.76;;;;;;;;;;386079;137;864826;-57
2021/06/20 00:35:50;;;;;;;4.94;1.15;;;;;;;;;;388860;137;859192;-58
2021/06/20 00:36:52;;;;;;;6.84;1.54;;;;;;;;;;386471;138;859599;-57
2021/06/20 00:37:55;;;;;;;6.95;1.44;;;;;;;;;;386157;138;857387;-57
2021/06/20 00:38:57;;;;;;;3.41;1.27;;;;;;;;;;384806;137;858937;-58
2021/06/20 00:39:58;;;;;;;5.64;1.56;;;;;;;;;;386913;137;859538;-58
2021/06/20 00:41:00;;;;;;;12.82;2.29;;;;;;;;;;386891;138;864694;-60
2021/06/20 00:42:03;;;;;;;3.55;1.29;;;;;;;;;;389252;137;857219;-60
2021/06/20 00:43:04;;;;;;;4.38;1.42;;;;;;;;;;385592;137;857380;-60
2021/06/20 00:44:06;;;;;;;6.44;1.34;;;;;;;;;;386240;138;858364;-60
2021/06/20 00:45:08;;;;;;;4.70;1.49;;;;;;;;;;386421;137;866348;-59
2021/06/20 00:46:11;;;;;;;5.49;1.46;;;;;;;;;;388246;137;859063;-59
2021/06/20 00:47:12;;;;;;;6.07;1.70;;;;;;;;;;385609;138;858946;-60
2021/06/20 00:48:14;;;;;;;4.36;1.59;;;;;;;;;;387128;137;859038;-59
2021/06/20 00:49:15;;;;;;;5.33;1.31;;;;;;;;;;384570;137;859635;-58
2021/06/20 00:50:17;;;;;;;4.11;1.10;;;;;;;;;;387496;137;865099;-60
2021/06/20 00:51:19;;;;;;;3.36;1.01;;;;;;;;;;382163;138;857232;-60
2021/06/20 00:52:20;;;;;;;5.55;1.31;;;;;;;;;;386775;137;857263;-59
2021/06/20 00:53:22;;;;;;;5.75;1.22;;;;;;;;;;388242;137;857174;-59
2021/06/20 00:54:23;;;;;;;6.01;1.26;;;;;;;;;;386767;137;857253;-59
2021/06/20 00:55:28;;;;;;;4.84;1.48;;;;;;;;;;388825;137;857111;-59
2021/06/20 00:56:32;;;;;;;4.47;1.44;;;;;;;;;;388226;137;864715;-58
2021/06/20 00:57:34;;;;;;;6.06;1.49;;;;;;;;;;386289;138;858665;-58
2021/06/20 00:58:35;;;;;;;7.09;1.51;;;;;;;;;;385780;138;857328;-59
2021/06/20 00:59:37;;;;;;;6.80;1.71;;;;;;;;;;386553;137;864939;-58
2021/06/20 01:00:39;;;;;;;9.76;1.35;;;;;;;;;;387428;137;857373;-59
2021/06/20 01:01:40;;;;;;;3.42;1.25;;;;;;;;;;380407;138;858239;-59
2021/06/20 01:02:45;;;;;;;5.70;1.99;;;;;;;;;;383166;137;860001;-58
2021/06/20 01:03:45;;;;;;;5.81;1.22;;;;;;;;;;386534;137;859377;-58
2021/06/20 01:04:48;;;;;;;6.49;1.34;;;;;;;;;;388291;137;856495;-58
2021/06/20 01:05:49;;;;;;;6.17;1.97;;;;;;;;;;387714;138;860257;-58
2021/06/20 01:06:51;;;;;;;3.07;1.28;;;;;;;;;;386809;137;858605;-58
2021/06/20 01:07:53;;;;;;;7.76;1.51;;;;;;;;;;383837;138;857274;-58
2021/06/20 01:08:55;;;;;;;4.97;1.65;;;;;;;;;;386204;137;857201;-58
2021/06/20 01:09:56;;;;;;;6.94;1.36;;;;;;;;;;385998;137;857159;-58
2021/06/20 01:10:58;;;;;;;6.11;1.50;;;;;;;;;;385823;138;857242;-59
2021/06/20 01:12:00;;;;;;;9.16;1.38;;;;;;;;;;388458;138;864734;-58
2021/06/20 01:13:01;;;;;;;5.34;1.40;;;;;;;;;;386835;137;864672;-58
2021/06/20 01:14:03;;;;;;;8.53;1.46;;;;;;;;;;386887;137;864628;-58
2021/06/20 01:15:06;;;;;;;4.88;1.38;;;;;;;;;;387410;138;857257;-58
2021/06/20 01:16:08;;;;;;;2.97;1.46;;;;;;;;;;386327;137;859005;-58
2021/06/20 01:17:10;;;;;;;4.59;1.79;;;;;;;;;;386865;137;865440;-58
2021/06/20 01:18:12;;;;;;;7.46;1.20;;;;;;;;;;387827;138;857699;-58
2021/06/20 01:19:13;;;;;;;5.27;1.35;;;;;;;;;;388726;138;857187;-59
2021/06/20 01:20:16;;;;;;;4.43;1.42;;;;;;;;;;387905;137;864537;-59
2021/06/20 01:21:17;;;;;;;6.33;1.97;;;;;;;;;;387954;138;857263;-59
2021/06/20 01:22:21;;;;;;;4.59;1.42;;;;;;;;;;388578;138;857208;-59
2021/06/20 01:23:23;;;;;;;3.44;1.57;;;;;;;;;;388287;137;864644;-59
2021/06/20 01:24:24;;;;;;;4.76;1.57;;;;;;;;;;386218;137;857161;-59
2021/06/20 01:25:26;;;;;;;4.18;1.30;;;;;;;;;;390230;136;857306;-59
2021/06/20 01:26:30;;;;;;;6.89;1.73;;;;;;;;;;391605;135;857040;-59
2021/06/20 01:27:40;;;;;;;3.77;1.21;;;;;;;;;;390940;135;857359;-59
2021/06/20 01:28:51;;;;;;;4.34;1.17;;;;;;;;;;386798;139;857193;-59
2021/06/20 01:29:53;;;;;;;5.95;2.43;;;;;;;;;;389020;135;859907;-59
2021/06/20 01:30:59;;;;;;;8.11;3.66;;;;;;;;;;390462;135;858884;-58
2021/06/20 01:32:01;;;;;;;12.15;4.28;;;;;;;;;;394128;136;865527;-58
2021/06/20 01:33:03;;;;;;;10.74;5.21;;;;;;;;;;395355;135;858189;-58
2021/06/20 01:34:05;;;;;;;11.37;5.11;;;;;;;;;;391284;135;865509;-59
2021/06/20 01:35:09;;;;;;;10.51;5.18;;;;;;;;;;393121;136;865060;-59
2021/06/20 01:36:11;;;;;;;7.32;4.65;;;;;;;;;;393878;135;867145;-59
2021/06/20 01:37:14;;;;;;;8.11;2.74;;;;;;;;;;390896;135;857064;-59
2021/06/20 01:38:15;;;;;;;8.71;2.23;;;;;;;;;;389727;136;858794;-59
2021/06/20 01:39:17;;;;;;;7.06;2.07;;;;;;;;;;391055;136;867593;-60
2021/06/20 01:40:20;;;;;;;8.66;1.45;;;;;;;;;;392297;135;858194;-58
2021/06/20 01:41:22;;;;;;;5.52;1.63;;;;;;;;;;389746;136;858074;-58
2021/06/20 01:42:23;;;;;;;6.11;1.60;;;;;;;;;;391674;136;865082;-59
2021/06/20 01:43:25;;;;;;;4.61;1.51;;;;;;;;;;394008;135;857367;-58
2021/06/20 01:44:26;;;;;;;10.01;2.00;;;;;;;;;;393345;136;857336;-59
2021/06/20 01:45:28;;;;;;;7.90;1.66;;;;;;;;;;391940;136;857320;-58
2021/06/20 01:46:30;;;;;;;4.36;1.51;;;;;;;;;;389736;136;858998;-58
2021/06/20 01:47:32;;;;;;;4.64;1.46;;;;;;;;;;391416;135;857247;-58
2021/06/20 01:48:36;;;;;;;5.09;1.56;;;;;;;;;;393278;135;857489;-59
2021/06/20 01:49:37;;;;;;;6.41;1.70;;;;;;;;;;389329;138;862241;-60
2021/06/20 01:50:39;;;;;;;5.91;1.61;;;;;;;;;;390943;135;857351;-59
2021/06/20 01:51:45;;;;;;;3.01;1.29;;;;;;;;;;392505;136;857720;-58
2021/06/20 01:52:46;;;;;;;6.93;1.38;;;;;;;;;;390518;138;858254;-58
2021/06/20 01:53:48;;;;;;;6.98;1.49;;;;;;;;;;394237;135;857386;-58
2021/06/20 01:54:50;;;;;;;5.92;1.34;;;;;;;;;;389085;136;857341;-58
2021/06/20 01:55:52;;;;;;;3.79;1.09;;;;;;;;;;387693;135;859290;-58
2021/06/20 01:56:53;;;;;;;8.29;1.76;;;;;;;;;;391502;136;859570;-57
2021/06/20 01:57:55;;;;;;;7.09;1.44;;;;;;;;;;391865;135;864697;-58
2021/06/20 01:58:56;;;;;;;6.41;1.39;;;;;;;;;;389826;136;857315;-58
2021/06/20 01:59:58;;;;;;;5.04;1.54;;;;;;;;;;395124;136;857291;-59
2021/06/20 02:01:01;;;;;;;6.35;1.45;;;;;;;;;;391726;135;857267;-59
2021/06/20 02:02:03;;;;;;;4.24;1.27;;;;;;;;;;392607;135;857183;-59
2021/06/20 02:03:12;;;;;;;3.08;1.30;;;;;;;;;;394078;136;864394;-59
2021/06/20 02:04:14;;;;;;;6.13;1.36;;;;;;;;;;392065;135;859610;-60
2021/06/20 02:05:15;;;;;;;7.46;1.37;;;;;;;;;;391504;135;858532;-60
2021/06/20 02:06:18;;;;;;;4.87;1.40;;;;;;;;;;391830;135;857208;-58
2021/06/20 02:07:20;;;;;;;9.24;1.37;;;;;;;;;;392507;135;858516;-59
2021/06/20 02:08:21;;;;;;;4.50;1.27;;;;;;;;;;389879;135;857151;-58
2021/06/20 02:09:23;;;;;;;4.30;1.49;;;;;;;;;;391879;136;857350;-59
2021/06/20 02:10:26;;;;;;;5.01;1.20;;;;;;;;;;392579;136;864588;-58
2021/06/20 02:11:29;;;;;;;3.80;1.48;;;;;;;;;;391998;136;859264;-59
2021/06/20 02:12:31;;;;;;;5.25;1.51;;;;;;;;;;394144;135;866407;-58
2021/06/20 02:13:32;;;;;;;3.30;1.16;;;;;;;;;;393744;135;857229;-58
2021/06/20 02:14:34;;;;;;;2.10;1.20;;;;;;;;;;391036;136;857273;-59
2021/06/20 02:15:35;;;;;;;4.51;1.09;;;;;;;;;;393347;136;858948;-59
2021/06/20 02:16:37;;;;;;;4.94;1.11;;;;;;;;;;394363;135;865553;-58
2021/06/20 02:17:39;;;;;;;6.49;1.10;;;;;;;;;;391175;135;857558;-59
2021/06/20 02:18:41;;;;;;;2.49;1.07;;;;;;;;;;394698;135;857301;-59
2021/06/20 02:19:42;;;;;;;6.49;1.36;;;;;;;;;;393974;135;857303;-59
2021/06/20 02:20:45;;;;;;;4.28;1.26;;;;;;;;;;391486;135;857391;-58
2021/06/20 02:21:48;;;;;;;7.52;1.31;;;;;;;;;;392116;136;857369;-59
2021/06/20 02:22:51;;;;;;;4.44;1.28;;;;;;;;;;391140;136;866879;-58
2021/06/20 02:23:53;;;;;;;1.95;1.02;;;;;;;;;;392047;135;857206;-58
2021/06/20 02:24:54;;;;;;;2.56;1.20;;;;;;;;;;389723;136;857229;-58
2021/06/20 02:25:56;;;;;;;4.37;1.54;;;;;;;;;;386291;139;857255;-59
2021/06/20 02:26:58;;;;;;;2.40;0.98;;;;;;;;;;389950;135;858973;-59
2021/06/20 02:27:59;;;;;;;6.34;1.11;;;;;;;;;;392320;135;858990;-56
2021/06/20 02:29:01;;;;;;;3.48;1.67;;;;;;;;;;392315;136;858466;-59
2021/06/20 02:30:03;;;;;;;5.79;1.39;;;;;;;;;;396425;135;858076;-58
2021/06/20 02:31:05;;;;;;;2.32;1.06;;;;;;;;;;392537;136;864715;-58
2021/06/20 02:32:07;;;;;;;4.78;1.29;;;;;;;;;;388933;136;858473;-57
2021/06/20 02:33:08;;;;;;;3.91;0.99;;;;;;;;;;391766;136;864415;-57
2021/06/20 02:34:10;;;;;;;5.56;1.33;;;;;;;;;;392338;135;857262;-57
2021/06/20 02:35:12;;;;;;;5.03;1.02;;;;;;;;;;390581;136;857219;-57
2021/06/20 02:36:15;;;;;;;4.38;1.10;;;;;;;;;;392741;136;857192;-59
2021/06/20 02:37:17;;;;;;;4.76;1.21;;;;;;;;;;393146;136;857353;-59
2021/06/20 02:38:19;;;;;;;1.86;1.17;;;;;;;;;;391608;136;857507;-60
2021/06/20 02:39:20;;;;;;;4.45;1.22;;;;;;;;;;392332;136;858728;-59
2021/06/20 02:40:22;;;;;;;8.73;1.35;;;;;;;;;;394197;136;858754;-58
2021/06/20 02:41:24;;;;;;;2.01;1.30;;;;;;;;;;392681;135;859100;-59
2021/06/20 02:42:25;;;;;;;8.71;1.90;;;;;;;;;;394644;136;864769;-59
2021/06/20 02:43:27;;;;;;;3.26;1.14;;;;;;;;;;393784;136;857247;-59
2021/06/20 02:44:29;;;;;;;4.87;1.58;;;;;;;;;;393172;136;857368;-59
2021/06/20 02:45:30;;;;;;;8.32;1.54;;;;;;;;;;392098;136;857771;-58
2021/06/20 02:46:32;;;;;;;4.03;1.07;;;;;;;;;;393751;136;857235;-59
2021/06/20 02:47:34;;;;;;;5.73;1.22;;;;;;;;;;392095;135;858926;-58
2021/06/20 02:48:35;;;;;;;4.05;1.15;;;;;;;;;;393014;136;860477;-58
2021/06/20 02:49:37;;;;;;;4.79;1.38;;;;;;;;;;394317;136;865723;-60
2021/06/20 02:50:41;;;;;;;2.12;0.92;;;;;;;;;;390022;136;859091;-59
2021/06/20 02:51:44;;;;;;;8.14;1.23;;;;;;;;;;389510;136;864947;-59
2021/06/20 02:52:45;;;;;;;10.43;1.26;;;;;;;;;;392422;136;860823;-58
2021/06/20 02:53:47;;;;;;;7.59;0.95;;;;;;;;;;390116;136;859060;-58
2021/06/20 02:54:52;;;;;;;3.05;0.99;;;;;;;;;;391236;135;859728;-58
2021/06/20 02:55:53;;;;;;;2.83;1.06;;;;;;;;;;391113;135;859590;-58
2021/06/20 02:56:55;;;;;;;6.37;1.40;;;;;;;;;;393698;136;864817;-57
2021/06/20 02:57:57;;;;;;;1.27;1.06;;;;;;;;;;390616;135;857300;-56
2021/06/20 02:58:58;;;;;;;2.61;1.10;;;;;;;;;;391141;136;858241;-59
2021/06/20 03:00:03;;;;;;;8.44;1.10;;;;;;;;;;393462;136;857380;-57
2021/06/20 03:01:04;;;;;;;3.28;1.02;;;;;;;;;;392390;135;860162;-59
2021/06/20 03:02:06;;;;;;;6.61;1.61;;;;;;;;;;388485;136;865693;-58
2021/06/20 03:03:08;;;;;;;4.49;1.13;;;;;;;;;;389558;135;864672;-58
2021/06/20 03:04:10;;;;;;;7.04;1.65;;;;;;;;;;390793;135;864592;-56
2021/06/20 03:05:12;;;;;;;3.12;1.12;;;;;;;;;;392599;136;857261;-58
2021/06/20 03:06:15;;;;;;;5.74;1.25;;;;;;;;;;391914;135;857208;-57
2021/06/20 03:07:17;;;;;;;6.28;1.14;;;;;;;;;;393382;136;857283;-59
2021/06/20 03:08:18;;;;;;;6.99;1.26;;;;;;;;;;393504;135;859000;-58
2021/06/20 03:09:20;;;;;;;2.30;1.10;;;;;;;;;;393571;136;858163;-57
2021/06/20 03:10:23;;;;;;;3.47;1.13;;;;;;;;;;393881;136;858918;-57
2021/06/20 03:11:24;;;;;;;4.69;1.51;;;;;;;;;;393957;135;865134;-58
2021/06/20 03:12:26;;;;;;;2.77;1.20;;;;;;;;;;393827;136;857257;-58
2021/06/20 03:13:28;;;;;;;12.83;1.58;;;;;;;;;;394240;136;857311;-59
2021/06/20 03:14:30;;;;;;;5.99;1.25;;;;;;;;;;394454;135;857255;-59
2021/06/20 03:15:32;;;;;;;6.66;1.34;;;;;;;;;;389309;136;857297;-59
2021/06/20 03:16:35;;;;;;;5.71;1.12;;;;;;;;;;393427;135;857760;-58
2021/06/20 03:17:36;;;;;;;4.73;1.39;;;;;;;;;;390471;135;857900;-60
2021/06/20 03:18:38;;;;;;;3.37;1.47;;;;;;;;;;391565;135;857381;-59
2021/06/20 03:19:40;;;;;;;5.59;1.18;;;;;;;;;;394112;136;857381;-57
2021/06/20 03:20:41;;;;;;;6.37;1.17;;;;;;;;;;392291;136;859127;-57
2021/06/20 03:21:43;;;;;;;5.26;1.39;;;;;;;;;;392411;135;858367;-57
2021/06/20 03:22:45;;;;;;;3.54;1.31;;;;;;;;;;389077;137;857611;-61
2021/06/20 03:23:46;;;;;;;5.81;1.23;;;;;;;;;;388081;135;859956;-58
2021/06/20 03:24:48;;;;;;;4.14;1.17;;;;;;;;;;391782;136;859454;-57
2021/06/20 03:25:50;;;;;;;7.29;1.98;;;;;;;;;;392193;135;860145;-59
2021/06/20 03:26:52;;;;;;;5.66;1.45;;;;;;;;;;390686;136;859848;-56
2021/06/20 03:27:53;;;;;;;3.04;1.35;;;;;;;;;;392352;136;864635;-58
2021/06/20 03:28:55;;;;;;;3.06;1.10;;;;;;;;;;391951;136;857350;-57
2021/06/20 03:29:57;;;;;;;4.45;1.12;;;;;;;;;;393659;136;857291;-57
2021/06/20 03:30:59;;;;;;;3.15;1.19;;;;;;;;;;394005;136;857249;-59
2021/06/20 03:32:01;;;;;;;7.53;1.56;;;;;;;;;;392173;135;857305;-58
2021/06/20 03:33:02;;;;;;;3.36;1.34;;;;;;;;;;391422;136;865278;-58
2021/06/20 03:34:04;;;;;;;3.31;1.38;;;;;;;;;;390822;136;864536;-58
2021/06/20 03:35:06;;;;;;;7.40;1.14;;;;;;;;;;391875;135;857276;-59
2021/06/20 03:36:08;;;;;;;5.17;1.19;;;;;;;;;;394927;135;857921;-60
2021/06/20 03:37:10;;;;;;;3.39;1.23;;;;;;;;;;393249;135;857384;-59
2021/06/20 03:38:11;;;;;;;5.31;1.51;;;;;;;;;;394796;135;858657;-58
2021/06/20 03:39:13;;;;;;;3.21;1.24;;;;;;;;;;391460;136;857403;-59
2021/06/20 03:40:15;;;;;;;2.83;1.24;;;;;;;;;;393556;136;859394;-58
2021/06/20 03:41:17;;;;;;;4.37;1.67;;;;;;;;;;392802;135;865862;-59
2021/06/20 03:42:18;;;;;;;4.36;1.04;;;;;;;;;;390176;135;857304;-60
2021/06/20 03:43:20;;;;;;;2.21;1.11;;;;;;;;;;393910;135;857256;-60
2021/06/20 03:44:21;;;;;;;4.39;1.49;;;;;;;;;;390206;136;857162;-58
2021/06/20 03:45:23;;;;;;;6.06;1.57;;;;;;;;;;389386;135;858645;-58
2021/06/20 03:46:25;;;;;;;8.37;1.69;;;;;;;;;;393300;136;857415;-59
2021/06/20 03:47:27;;;;;;;7.36;1.71;;;;;;;;;;393838;136;858955;-59
2021/06/20 03:48:29;;;;;;;3.24;1.14;;;;;;;;;;393143;135;856305;-60
2021/06/20 03:49:30;;;;;;;6.14;1.36;;;;;;;;;;392900;136;857228;-59
2021/06/20 03:50:34;;;;;;;11.04;1.56;;;;;;;;;;393480;136;865102;-59
2021/06/20 03:51:35;;;;;;;5.29;1.31;;;;;;;;;;393814;135;858499;-60
2021/06/20 03:52:37;;;;;;;5.69;1.64;;;;;;;;;;390919;136;865895;-59
2021/06/20 03:53:39;;;;;;;5.03;1.51;;;;;;;;;;388625;136;859171;-58
2021/06/20 03:54:40;;;;;;;6.08;1.46;;;;;;;;;;389833;135;858698;-59
2021/06/20 03:55:42;;;;;;;2.25;1.31;;;;;;;;;;390939;135;857991;-59
2021/06/20 03:56:44;;;;;;;9.37;1.67;;;;;;;;;;390139;135;857396;-58
2021/06/20 03:57:46;;;;;;;6.93;1.99;;;;;;;;;;396432;135;857335;-59
2021/06/20 03:58:47;;;;;;;8.19;1.31;;;;;;;;;;392626;136;857276;-58
2021/06/20 03:59:49;;;;;;;7.18;1.41;;;;;;;;;;391065;136;857384;-56
2021/06/20 04:00:51;;;;;;;5.67;1.39;;;;;;;;;;391677;136;857267;-59
2021/06/20 04:01:54;;;;;;;5.41;1.57;;;;;;;;;;391170;135;858343;-59
2021/06/20 04:02:56;;;;;;;2.20;1.53;;;;;;;;;;391393;135;857392;-59
2021/06/20 04:03:57;;;;;;;5.41;1.63;;;;;;;;;;390897;135;858021;-62
2021/06/20 04:04:59;;;;;;;5.35;1.40;;;;;;;;;;392518;135;858794;-58
2021/06/20 04:06:01;;;;;;;3.76;1.19;;;;;;;;;;390723;136;860091;-59
2021/06/20 04:07:02;;;;;;;3.66;1.41;;;;;;;;;;392457;135;865664;-58
2021/06/20 04:08:04;;;;;;;5.89;1.28;;;;;;;;;;391703;135;857315;-59
2021/06/20 04:09:06;;;;;;;6.67;1.48;;;;;;;;;;390761;136;857887;-58
2021/06/20 04:10:09;;;;;;;3.20;1.50;;;;;;;;;;391115;136;857276;-58
2021/06/20 04:11:10;;;;;;;6.83;1.39;;;;;;;;;;391719;136;857292;-59
2021/06/20 04:12:13;;;;;;;5.21;1.29;;;;;;;;;;390740;135;859438;-59
2021/06/20 04:13:15;;;;;;;6.26;1.24;;;;;;;;;;391045;135;857382;-58
2021/06/20 04:14:17;;;;;;;4.57;1.47;;;;;;;;;;387727;136;857313;-58
2021/06/20 04:15:18;;;;;;;4.41;1.09;;;;;;;;;;391847;135;865075;-57
2021/06/20 04:16:20;;;;;;;3.87;1.11;;;;;;;;;;390481;136;857348;-56
2021/06/20 04:17:22;;;;;;;5.19;1.57;;;;;;;;;;388526;136;857282;-57
2021/06/20 04:18:24;;;;;;;3.89;1.24;;;;;;;;;;389533;135;866455;-57
2021/06/20 04:19:25;;;;;;;2.79;1.28;;;;;;;;;;390862;136;858985;-57
2021/06/20 04:20:28;;;;;;;6.91;1.33;;;;;;;;;;389768;136;859342;-57
2021/06/20 04:21:30;;;;;;;5.93;1.19;;;;;;;;;;389601;135;857534;-58
2021/06/20 04:22:31;;;;;;;7.27;2.27;;;;;;;;;;391191;135;857292;-57
2021/06/20 04:23:33;;;;;;;5.09;1.54;;;;;;;;;;390259;136;857213;-58
2021/06/20 04:24:35;;;;;;;2.28;1.23;;;;;;;;;;390738;136;857125;-57
2021/06/20 04:25:36;;;;;;;5.09;1.26;;;;;;;;;;392472;135;858954;-57
2021/06/20 04:26:41;;;;;;;2.95;1.49;;;;;;;;;;391548;136;857663;-58
2021/06/20 04:27:42;;;;;;;9.61;1.42;;;;;;;;;;389741;135;858791;-56
2021/06/20 04:28:44;;;;;;;7.25;1.45;;;;;;;;;;391185;135;857339;-58
2021/06/20 04:29:45;;;;;;;6.81;1.43;;;;;;;;;;388728;135;857352;-58
2021/06/20 04:30:53;;;;;;;4.71;1.63;;;;;;;;;;387628;139;857876;-58
2021/06/20 04:31:51;;;;;;;4.53;1.54;;;;;;;;;;391518;135;859075;-60
2021/06/20 04:32:53;;;;;;;3.54;1.40;;;;;;;;;;392120;136;857237;-55
2021/06/20 04:33:54;;;;;;;5.93;1.34;;;;;;;;;;391118;136;858133;-55
2021/06/20 04:34:56;;;;;;;2.95;1.53;;;;;;;;;;390191;135;857392;-59
2021/06/20 04:35:58;;;;;;;3.34;1.26;;;;;;;;;;392263;135;858812;-61
2021/06/20 04:36:59;;;;;;;9.91;1.81;;;;;;;;;;388667;137;857277;-60
2021/06/20 04:38:01;;;;;;;4.68;1.72;;;;;;;;;;394194;135;857320;-57
2021/06/20 04:39:06;;;;;;;3.44;1.41;;;;;;;;;;390043;135;857281;-58
2021/06/20 04:40:09;;;;;;;3.47;1.34;;;;;;;;;;390243;136;857346;-57
2021/06/20 04:41:14;;;;;;;8.25;1.94;;;;;;;;;;393077;136;860745;-58
2021/06/20 04:42:16;;;;;;;4.53;1.81;;;;;;;;;;390392;135;857310;-57
2021/06/20 04:44:45;;;;;;;6.62;1.67;;;;;;;;;;387481;139;858249;-59
2021/06/20 04:45:47;;;;;;;3.30;1.38;;;;;;;;;;393280;135;857396;-59
2021/06/20 04:46:48;;;;;;;4.11;1.32;;;;;;;;;;391033;135;857811;-60
2021/06/20 04:47:50;;;;;;;4.71;1.31;;;;;;;;;;390099;136;866614;-56
2021/06/20 04:48:52;;;;;;;3.59;1.29;;;;;;;;;;393166;135;857432;-58
2021/06/20 04:49:53;;;;;;;5.62;1.47;;;;;;;;;;391661;136;865577;-57
2021/06/20 04:50:57;;;;;;;3.94;1.40;;;;;;;;;;393105;136;859267;-58
2021/06/20 04:51:58;;;;;;;3.49;1.39;;;;;;;;;;388604;136;857286;-59
2021/06/20 04:53:00;;;;;;;5.04;1.56;;;;;;;;;;392021;135;859188;-59
2021/06/20 04:54:02;;;;;;;10.54;1.95;;;;;;;;;;390432;135;857208;-59
2021/06/20 04:55:04;;;;;;;6.24;1.54;;;;;;;;;;393632;136;857168;-59
2021/06/20 04:56:06;;;;;;;2.13;1.30;;;;;;;;;;390831;135;866426;-59
2021/06/20 04:57:08;;;;;;;5.54;1.71;;;;;;;;;;393371;136;859035;-58
2021/06/20 04:58:10;;;;;;;5.67;1.41;;;;;;;;;;390599;136;857334;-58
2021/06/20 04:59:11;;;;;;;6.13;1.34;;;;;;;;;;392313;135;857295;-59
2021/06/20 05:00:15;;;;;;;2.57;1.31;;;;;;;;;;389445;135;857360;-59
2021/06/20 05:01:17;;;;;;;3.61;1.41;;;;;;;;;;387868;136;857666;-59
2021/06/20 05:02:19;;;;;;;5.12;1.66;;;;;;;;;;389225;135;857886;-59
2021/06/20 05:03:20;;;;;;;4.41;1.24;;;;;;;;;;391918;136;857293;-59
2021/06/20 05:04:22;;;;;;;2.76;1.39;;;;;;;;;;389334;136;864395;-59
2021/06/20 05:05:24;;;;;;;4.99;1.59;;;;;;;;;;392165;135;857292;-58
2021/06/20 05:06:27;;;;;;;6.44;1.49;;;;;;;;;;392492;135;857240;-59
2021/06/20 05:07:29;;;;;;;5.45;1.59;;;;;;;;;;392552;136;857818;-59
2021/06/20 05:08:30;;;;;;;5.21;1.43;;;;;;;;;;390886;136;857202;-57
2021/06/20 05:09:32;;;;;;;5.79;1.67;;;;;;;;;;391819;135;857103;-59
2021/06/20 05:10:35;;;;;;;6.65;1.53;;;;;;;;;;390025;136;858878;-58
2021/06/20 05:11:37;;;;;;;2.61;1.51;;;;;;;;;;392828;136;857317;-58
2021/06/20 05:12:38;;;;;;;4.18;1.46;;;;;;;;;;391531;135;857512;-58
2021/06/20 05:13:40;;;;;;;9.56;2.07;;;;;;;;;;388623;135;859491;-58
2021/06/20 05:14:43;;;;;;;9.23;1.54;;;;;;;;;;394980;136;859421;-58
2021/06/20 05:15:44;;;;;;;6.22;1.44;;;;;;;;;;393312;136;859190;-56
2021/06/20 05:16:47;;;;;;;2.61;1.32;;;;;;;;;;389886;136;857342;-57
2021/06/20 05:17:49;;;;;;;3.34;1.48;;;;;;;;;;392036;135;866603;-58
2021/06/20 05:18:50;;;;;;;2.84;1.57;;;;;;;;;;390838;135;858921;-58
2021/06/20 05:19:52;;;;;;;6.03;1.61;;;;;;;;;;391628;136;859260;-58
2021/06/20 05:20:53;;;;;;;4.27;1.46;;;;;;;;;;388649;136;858448;-58
2021/06/20 05:21:55;;;;;;;4.61;1.61;;;;;;;;;;392354;136;865422;-57
2021/06/20 05:22:57;;;;;;;6.19;1.47;;;;;;;;;;388888;135;864903;-58
2021/06/20 05:23:58;;;;;;;3.57;1.65;;;;;;;;;;388026;136;857327;-59
2021/06/20 05:25:00;;;;;;;8.24;1.81;;;;;;;;;;391054;136;857179;-58
2021/06/20 05:26:02;;;;;;;3.65;1.39;;;;;;;;;;389312;135;858949;-58
2021/06/20 05:27:03;;;;;;;5.69;1.51;;;;;;;;;;389286;136;858950;-60
2021/06/20 05:28:05;;;;;;;5.75;1.41;;;;;;;;;;386521;136;858425;-58
2021/06/20 05:29:07;;;;;;;5.38;1.47;;;;;;;;;;390042;135;864092;-58
2021/06/20 05:30:10;;;;;;;12.51;1.43;;;;;;;;;;391920;136;856324;-58
2021/06/20 05:31:12;;;;;;;4.64;1.78;;;;;;;;;;394586;135;865449;-58
2021/06/20 05:32:13;;;;;;;4.04;1.54;;;;;;;;;;389436;135;858597;-58
2021/06/20 05:33:18;;;;;;;4.65;1.62;;;;;;;;;;393063;136;857209;-58
2021/06/20 05:34:20;;;;;;;3.04;2.07;;;;;;;;;;387959;136;857370;-59
2021/06/20 05:35:21;;;;;;;4.99;1.75;;;;;;;;;;392074;136;864367;-59
2021/06/20 05:36:23;;;;;;;2.87;1.35;;;;;;;;;;390449;136;857222;-58
2021/06/20 05:37:25;;;;;;;11.58;1.51;;;;;;;;;;387340;136;857086;-59
2021/06/20 05:38:26;;;;;;;5.76;1.55;;;;;;;;;;389610;136;857307;-57
2021/06/20 05:39:28;;;;;;;2.36;1.29;;;;;;;;;;390661;135;866402;-59
2021/06/20 05:40:31;;;;;;;3.40;1.42;;;;;;;;;;390827;136;857274;-58
2021/06/20 05:41:32;;;;;;;3.85;1.45;;;;;;;;;;392184;135;857217;-57
2021/06/20 05:42:34;;;;;;;3.59;1.29;;;;;;;;;;391864;136;857778;-58
2021/06/20 05:43:36;;;;;;;4.16;1.44;;;;;;;;;;392895;135;864596;-61
2021/06/20 05:44:37;;;;;;;7.60;1.66;;;;;;;;;;394494;135;857361;-59
2021/06/20 05:45:39;;;;;;;2.51;1.54;;;;;;;;;;392157;135;859080;-59
2021/06/20 05:46:41;;;;;;;4.91;1.39;;;;;;;;;;391233;135;858202;-58
2021/06/20 05:47:42;;;;;;;6.74;1.56;;;;;;;;;;393436;135;858711;-58
2021/06/20 05:48:44;;;;;;;6.01;1.59;;;;;;;;;;389905;136;859338;-59
2021/06/20 05:49:46;;;;;;;2.91;1.47;;;;;;;;;;392844;136;857376;-59
2021/06/20 05:50:48;;;;;;;4.33;1.71;;;;;;;;;;389158;136;857289;-58
2021/06/20 05:51:49;;;;;;;2.51;1.22;;;;;;;;;;389689;135;864553;-58
2021/06/20 05:52:52;;;;;;;7.39;1.31;;;;;;;;;;392819;135;857552;-58
2021/06/20 05:53:54;;;;;;;6.01;1.53;;;;;;;;;;385752;139;860316;-57
2021/06/20 05:54:56;;;;;;;6.48;1.61;;;;;;;;;;380054;136;864490;-58
2021/06/20 05:55:57;;;;;;;7.70;1.51;;;;;;;;;;391182;135;858900;-60
2021/06/20 05:56:59;;;;;;;9.23;1.36;;;;;;;;;;392336;136;864921;-59
2021/06/20 05:58:01;;;;;;;1.91;1.06;;;;;;;;;;395420;136;861313;-59
2021/06/20 05:59:03;;;;;;;7.08;1.41;;;;;;;;;;390107;135;857226;-60
2021/06/20 06:00:06;;;;;;;6.44;1.29;;;;;;;;;;390812;136;857234;-59
2021/06/20 06:01:08;;;;;;;5.68;1.22;;;;;;;;;;391109;136;857298;-57
2021/06/20 06:02:09;;;;;;;2.49;1.16;;;;;;;;;;391894;136;859364;-58
2021/06/20 06:03:11;;;;;;;3.54;1.29;;;;;;;;;;391867;135;864543;-58
2021/06/20 06:04:12;;;;;;;4.04;1.53;;;;;;;;;;390131;136;857233;-59
2021/06/20 06:05:14;;;;;;;4.04;1.30;;;;;;;;;;391054;135;857239;-59
2021/06/20 06:06:16;;;;;;;8.33;1.33;;;;;;;;;;390987;136;858859;-58
2021/06/20 06:07:18;;;;;;;3.74;1.19;;;;;;;;;;393096;135;858519;-60